Time;durP1;ratioP1;P1;durP2;ratioP2;P2;SDS_P1;SDS_P2;PMS_P1;PMS_P2;Temp;Humidity;BMP_temperature;BMP_pressure;BME280_temperature;BME280_humidity;BME280_pressure;Samples;Min_cycle;Max_cycle;Signal;HPM_P1;HPM_P2
2022/09/10 00:01:40;;;;;;;4.40;1.90;;;18.60;94.60;;;;;;5040886;28;20025;-85
2022/09/10 00:04:12;;;;;;;3.45;1.70;;;18.50;94.60;;;;;;5041016;28;20037;-86
2022/09/10 00:06:38;;;;;;;4.88;1.77;;;18.50;94.50;;;;;;5024365;28;20487;-86
2022/09/10 00:09:05;;;;;;;5.28;2.30;;;18.50;94.50;;;;;;5024278;28;20469;-86
2022/09/10 00:11:34;;;;;;;3.70;1.77;;;18.50;94.60;;;;;;5041151;28;20116;-86
2022/09/10 00:14:04;;;;;;;5.00;2.15;;;18.50;94.60;;;;;;5040995;28;20025;-87
2022/09/10 00:16:31;;;;;;;3.85;1.80;;;18.40;94.60;;;;;;5040078;28;20040;-85
2022/09/10 00:18:58;;;;;;;6.15;2.20;;;18.40;94.70;;;;;;5040495;28;20039;-86
2022/09/10 00:21:26;;;;;;;3.55;2.00;;;18.40;94.70;;;;;;5057450;28;20044;-86
2022/09/10 00:23:55;;;;;;;4.07;2.03;;;18.50;94.70;;;;;;5058148;28;20021;-87
2022/09/10 00:26:27;;;;;;;4.57;2.25;;;18.50;94.70;;;;;;5039952;28;20089;-86
2022/09/10 00:28:58;;;;;;;5.72;2.42;;;18.50;94.70;;;;;;5040081;28;20032;-86
2022/09/10 00:31:25;;;;;;;4.57;2.60;;;18.40;94.70;;;;;;5039606;28;20104;-87
2022/09/10 00:33:51;;;;;;;6.57;2.38;;;18.50;94.70;;;;;;5023362;28;20030;-85
2022/09/10 00:36:35;;;;;;;5.65;2.83;;;18.50;94.70;;;;;;5040111;28;20037;-86
2022/09/10 00:39:10;;;;;;;6.28;2.67;;;18.50;94.70;;;;;;5058347;28;20108;-86
2022/09/10 00:41:38;;;;;;;4.88;2.97;;;18.50;94.70;;;;;;5040381;28;20025;-86
2022/09/10 00:44:53;;;;;;;7.03;3.10;;;18.50;94.60;;;;;;5039784;28;20136;-85
2022/09/10 00:47:49;;;;;;;6.90;3.13;;;18.50;94.70;;;;;;5017059;28;20040;-84
2022/09/10 00:50:38;;;;;;;7.05;3.15;;;18.50;94.70;;;;;;5036931;28;20098;-85
2022/09/10 00:53:10;;;;;;;8.35;3.55;;;18.50;94.70;;;;;;5040090;28;20106;-85
2022/09/10 00:55:51;;;;;;;5.35;3.03;;;18.50;94.70;;;;;;5023683;28;20483;-86
2022/09/10 00:58:19;;;;;;;6.28;3.42;;;18.40;94.80;;;;;;5024475;28;20043;-86
2022/09/10 01:00:45;;;;;;;6.00;3.58;;;18.50;94.80;;;;;;5039518;28;20033;-85
2022/09/10 01:03:15;;;;;;;5.95;4.10;;;18.50;94.80;;;;;;5040009;28;20025;-86
2022/09/10 01:05:44;;;;;;;5.82;4.18;;;18.50;94.80;;;;;;5039895;28;20025;-85
2022/09/10 01:08:15;;;;;;;6.85;4.30;;;18.50;94.80;;;;;;5039750;28;20025;-85
2022/09/10 01:10:53;;;;;;;7.63;4.40;;;18.50;94.80;;;;;;5039747;28;20167;-85
2022/09/10 01:13:49;;;;;;;6.75;4.30;;;18.50;94.80;;;;;;5039918;28;20082;-86
2022/09/10 01:16:33;;;;;;;5.72;4.03;;;18.50;94.80;;;;;;5040603;28;20025;-86
2022/09/10 01:19:10;;;;;;;6.95;4.32;;;18.50;94.80;;;;;;5047656;28;20086;-86
2022/09/10 01:21:49;;;;;;;9.80;5.07;;;18.50;94.80;;;;;;5051600;28;20029;-87
2022/09/10 01:24:51;;;;;;;7.65;4.65;;;18.50;94.80;;;;;;5057700;28;20029;-86
2022/09/10 01:27:35;;;;;;;7.35;4.80;;;18.60;94.90;;;;;;5050827;28;20077;-85
2022/09/10 01:30:09;;;;;;;8.63;4.90;;;18.60;94.80;;;;;;5044709;28;20033;-87
2022/09/10 01:32:45;;;;;;;8.77;5.05;;;18.60;94.80;;;;;;5024153;28;20025;-85
2022/09/10 01:35:23;;;;;;;8.95;5.85;;;18.60;94.90;;;;;;5039357;28;20033;-88
2022/09/10 01:38:03;;;;;;;6.38;4.22;;;18.60;94.80;;;;;;5039135;28;20046;-87
2022/09/10 01:40:31;;;;;;;7.30;5.28;;;18.60;94.90;;;;;;5038875;28;20488;-85
2022/09/10 01:43:06;;;;;;;9.90;5.75;;;18.60;94.90;;;;;;5057054;28;20029;-87
2022/09/10 01:46:19;;;;;;;7.63;5.00;;;18.60;94.80;;;;;;5038493;28;20087;-85
2022/09/10 01:49:03;;;;;;;8.82;5.75;;;18.60;94.90;;;;;;5029357;28;20048;-87
2022/09/10 01:51:44;;;;;;;8.52;5.50;;;18.70;94.90;;;;;;5038557;28;20139;-85
2022/09/10 01:54:28;;;;;;;9.82;5.68;;;18.60;94.90;;;;;;5039255;28;20036;-85
2022/09/10 01:57:26;;;;;;;6.75;5.07;;;18.70;94.90;;;;;;5037226;28;20033;-85
2022/09/10 02:00:09;;;;;;;9.40;5.90;;;18.70;94.90;;;;;;5059578;28;20036;-85
2022/09/10 02:03:02;;;;;;;6.72;5.43;;;18.70;94.80;;;;;;5043054;28;20024;-84
2022/09/10 02:05:30;;;;;;;8.13;4.88;;;18.70;94.80;;;;;;5042665;28;20024;-86
2022/09/10 02:08:04;;;;;;;7.30;4.47;;;18.60;94.90;;;;;;5042442;28;20025;-86
2022/09/10 02:10:30;;;;;;;6.88;5.40;;;18.60;94.90;;;;;;5060707;28;20021;-85
2022/09/10 02:12:56;;;;;;;5.95;4.35;;;18.60;95.00;;;;;;5041690;28;20029;-87
2022/09/10 02:15:28;;;;;;;7.40;4.88;;;18.60;95.00;;;;;;5042675;28;20400;-86
2022/09/10 02:17:56;;;;;;;7.70;5.30;;;18.60;95.10;;;;;;5042186;28;20021;-86
2022/09/10 02:20:24;;;;;;;6.32;4.68;;;18.60;95.30;;;;;;5042621;28;20029;-86
2022/09/10 02:22:57;;;;;;;7.32;4.80;;;18.60;95.00;;;;;;5041628;28;20052;-88
2022/09/10 02:25:27;;;;;;;6.68;4.93;;;18.60;95.10;;;;;;5042382;28;20017;-85
2022/09/10 02:27:53;;;;;;;11.23;5.55;;;18.60;95.10;;;;;;5041279;28;20120;-85
2022/09/10 02:30:23;;;;;;;9.30;5.88;;;18.60;95.10;;;;;;5041537;28;20021;-86
2022/09/10 02:32:50;;;;;;;7.30;5.15;;;18.60;95.10;;;;;;5041970;28;20040;-85
2022/09/10 02:35:16;;;;;;;8.23;5.82;;;18.60;95.10;;;;;;5041404;28;20032;-84
2022/09/10 02:37:43;;;;;;;8.80;5.53;;;18.60;95.00;;;;;;5042005;28;20034;-86
2022/09/10 02:40:20;;;;;;;12.55;5.72;;;18.70;95.10;;;;;;5043287;28;20113;-88
2022/09/10 02:42:57;;;;;;;8.23;5.82;;;18.70;95.10;;;;;;5044074;28;20029;-87
2022/09/10 02:45:25;;;;;;;9.23;5.32;;;18.70;95.00;;;;;;5026473;28;20381;-86
2022/09/10 02:47:51;;;;;;;8.45;5.35;;;18.70;95.00;;;;;;5041972;28;20437;-87
2022/09/10 02:50:23;;;;;;;7.40;5.32;;;18.70;95.00;;;;;;5042027;28;20116;-86
2022/09/10 02:52:50;;;;;;;7.47;4.97;;;18.70;95.00;;;;;;5025727;28;20552;-90
2022/09/10 02:55:17;;;;;;;8.63;5.60;;;18.70;95.00;;;;;;5022780;28;20061;-86
2022/09/10 02:57:46;;;;;;;7.88;4.95;;;18.70;95.00;;;;;;5040904;28;20151;-85
2022/09/10 03:00:12;;;;;;;7.80;5.80;;;18.70;95.00;;;;;;5007750;28;20025;-85
2022/09/10 03:02:42;;;;;;;7.25;5.88;;;18.80;95.00;;;;;;5023238;28;20358;-86
2022/09/10 03:05:08;;;;;;;6.75;5.13;;;18.70;95.00;;;;;;5023015;28;20117;-86
2022/09/10 03:07:37;;;;;;;6.80;5.55;;;18.70;95.00;;;;;;5022436;28;20021;-85
2022/09/10 03:10:08;;;;;;;7.47;6.18;;;18.80;95.10;;;;;;5005791;28;20129;-86
2022/09/10 03:12:34;;;;;;;5.78;4.90;;;18.80;95.10;;;;;;5021628;28;20088;-86
2022/09/10 03:14:59;;;;;;;5.63;5.13;;;18.80;95.10;;;;;;5056346;28;20010;-87
2022/09/10 03:17:28;;;;;;;5.97;5.25;;;18.80;95.10;;;;;;5026808;28;20053;-86
2022/09/10 03:19:57;;;;;;;7.75;5.40;;;18.80;95.20;;;;;;5043773;28;20010;-87
2022/09/10 03:22:26;;;;;;;7.28;5.30;;;18.80;95.20;;;;;;5043227;28;20029;-86
2022/09/10 03:24:53;;;;;;;6.70;5.22;;;18.80;95.20;;;;;;5040431;28;20049;-85
2022/09/10 03:27:21;;;;;;;7.88;5.60;;;18.80;95.20;;;;;;5022312;28;20025;-85
2022/09/10 03:29:51;;;;;;;6.82;5.13;;;18.80;95.30;;;;;;5006142;28;20046;-86
2022/09/10 03:32:17;;;;;;;5.68;5.03;;;18.70;95.30;;;;;;5022164;28;20113;-86
2022/09/10 03:34:44;;;;;;;6.60;5.05;;;18.80;95.30;;;;;;5021762;28;20053;-85
2022/09/10 03:37:09;;;;;;;7.03;5.50;;;18.80;95.60;;;;;;5021967;28;20048;-86
2022/09/10 03:39:35;;;;;;;7.97;5.57;;;18.70;95.40;;;;;;5001606;28;20493;-87
2022/09/10 03:42:03;;;;;;;6.72;4.97;;;18.80;95.40;;;;;;5018177;28;20056;-85
2022/09/10 03:44:32;;;;;;;6.53;5.22;;;18.70;95.40;;;;;;5021055;28;20018;-86
2022/09/10 03:47:00;;;;;;;7.00;4.70;;;18.80;95.40;;;;;;5004910;28;20083;-85
2022/09/10 03:49:29;;;;;;;9.65;5.30;;;18.70;95.40;;;;;;5020994;28;20076;-86
2022/09/10 03:52:03;;;;;;;7.65;5.05;;;18.70;95.40;;;;;;5015637;28;20053;-86
2022/09/10 03:54:28;;;;;;;5.50;4.70;;;18.80;95.50;;;;;;5041192;28;20028;-84
2022/09/10 03:56:54;;;;;;;7.53;4.82;;;18.80;95.50;;;;;;5041416;28;20024;-87
2022/09/10 03:59:20;;;;;;;6.65;5.18;;;18.80;95.50;;;;;;5040694;28;20362;-85
2022/09/10 04:01:46;;;;;;;7.88;5.43;;;18.80;95.40;;;;;;5041571;28;20029;-85
2022/09/10 04:04:15;;;;;;;8.52;5.78;;;18.80;95.40;;;;;;5041293;28;20017;-85
2022/09/10 04:06:40;;;;;;;9.02;5.63;;;18.80;95.50;;;;;;5041843;28;20380;-87
2022/09/10 04:09:06;;;;;;;7.50;5.32;;;18.80;95.50;;;;;;5024405;28;20036;-85
2022/09/10 04:11:32;;;;;;;7.22;5.20;;;18.80;95.50;;;;;;5058802;28;20056;-86
2022/09/10 04:14:00;;;;;;;7.60;5.20;;;18.80;95.50;;;;;;5040072;28;20036;-86
2022/09/10 04:16:26;;;;;;;6.65;5.32;;;18.90;95.50;;;;;;5040576;28;20025;-86
2022/09/10 04:18:53;;;;;;;6.97;5.20;;;18.80;95.50;;;;;;5040652;28;20031;-86
2022/09/10 04:21:19;;;;;;;7.82;5.47;;;18.90;95.50;;;;;;5024825;28;20033;-86
2022/09/10 04:23:46;;;;;;;10.88;5.30;;;18.90;95.60;;;;;;5041726;28;20021;-87
2022/09/10 04:26:17;;;;;;;8.73;5.20;;;18.90;95.50;;;;;;5024810;28;20056;-85
2022/09/10 04:28:46;;;;;;;5.50;4.97;;;18.90;95.50;;;;;;5040858;28;20037;-86
2022/09/10 04:31:12;;;;;;;6.05;5.10;;;18.90;95.60;;;;;;5040100;28;20049;-85
2022/09/10 04:33:38;;;;;;;5.72;5.00;;;18.80;95.50;;;;;;5040668;28;20024;-86
2022/09/10 04:36:11;;;;;;;7.40;5.28;;;18.90;95.60;;;;;;5039686;28;20380;-84
2022/09/10 04:38:40;;;;;;;6.15;4.72;;;18.90;95.50;;;;;;5040513;28;20128;-86
2022/09/10 04:41:06;;;;;;;5.55;4.50;;;18.90;95.50;;;;;;5041051;28;20024;-86
2022/09/10 04:43:33;;;;;;;4.93;4.43;;;18.90;95.50;;;;;;5040478;28;20086;-86
2022/09/10 04:46:01;;;;;;;6.05;4.65;;;19.00;95.60;;;;;;5040129;28;20072;-85
2022/09/10 04:48:30;;;;;;;5.88;4.55;;;18.90;95.60;;;;;;5040901;28;20456;-85
2022/09/10 04:50:58;;;;;;;6.32;4.32;;;18.90;95.60;;;;;;5038448;28;20025;-86
2022/09/10 04:53:26;;;;;;;5.85;4.13;;;18.90;95.60;;;;;;5020728;28;20115;-85
2022/09/10 04:55:53;;;;;;;6.40;4.32;;;18.90;95.60;;;;;;5020548;28;20017;-85
2022/09/10 04:58:24;;;;;;;6.05;4.25;;;18.90;95.60;;;;;;5019850;28;20056;-84
2022/09/10 05:01:00;;;;;;;6.30;5.03;;;19.00;95.60;;;;;;5020888;28;20053;-86
2022/09/10 05:03:28;;;;;;;6.70;4.75;;;19.00;95.60;;;;;;5042656;28;20044;-85
2022/09/10 05:05:55;;;;;;;7.05;4.63;;;19.00;95.60;;;;;;5041557;28;20091;-85
2022/09/10 05:08:24;;;;;;;6.28;4.53;;;19.00;95.60;;;;;;5028121;28;20106;-85
2022/09/10 05:10:53;;;;;;;6.20;4.72;;;19.00;95.60;;;;;;5033789;28;20032;-84
2022/09/10 05:13:23;;;;;;;6.15;4.75;;;18.90;95.60;;;;;;5036202;28;20024;-85
2022/09/10 05:15:49;;;;;;;5.70;4.28;;;19.00;95.60;;;;;;5041219;28;20089;-85
2022/09/10 05:18:16;;;;;;;6.28;4.70;;;19.00;95.60;;;;;;5037940;28;20064;-86
2022/09/10 05:20:46;;;;;;;6.43;4.97;;;19.00;95.60;;;;;;5026812;28;20459;-86
2022/09/10 05:23:20;;;;;;;6.07;4.63;;;19.00;95.60;;;;;;5003998;28;20037;-85
2022/09/10 05:25:52;;;;;;;5.88;5.28;;;19.00;95.60;;;;;;5020906;28;20478;-86
2022/09/10 05:28:19;;;;;;;6.32;4.90;;;19.00;95.60;;;;;;5020517;28;20450;-86
2022/09/10 05:30:46;;;;;;;6.28;4.47;;;19.00;95.70;;;;;;5019678;28;20481;-86
2022/09/10 05:33:13;;;;;;;5.90;4.93;;;19.00;95.60;;;;;;5018470;28;20032;-85
2022/09/10 05:35:40;;;;;;;6.50;4.88;;;19.00;95.60;;;;;;5020111;28;20056;-83
2022/09/10 05:38:13;;;;;;;5.65;5.15;;;19.00;95.70;;;;;;5021302;28;20045;-87
2022/09/10 05:40:44;;;;;;;5.32;4.57;;;19.00;95.70;;;;;;5019420;28;20029;-87
2022/09/10 05:43:12;;;;;;;6.63;5.00;;;19.10;95.70;;;;;;5019137;28;20041;-86
2022/09/10 05:45:46;;;;;;;6.25;5.00;;;19.10;95.70;;;;;;5020617;28;20417;-86
2022/09/10 05:48:17;;;;;;;6.35;4.82;;;19.10;95.70;;;;;;5005851;28;20021;-88
2022/09/10 05:50:45;;;;;;;5.50;4.68;;;19.10;95.70;;;;;;5004986;28;20084;-86
2022/09/10 05:53:12;;;;;;;7.20;4.82;;;19.10;95.70;;;;;;5040336;28;20028;-85
2022/09/10 05:55:38;;;;;;;7.50;4.63;;;19.20;95.80;;;;;;5042508;28;20096;-87
2022/09/10 05:58:27;;;;;;;;;;;;;;;;;;;;;
2022/09/10 06:01:05;;;;;;;6.05;4.55;;;19.10;95.70;;;;;;5057497;28;20021;-88
2022/09/10 06:03:36;;;;;;;6.68;4.43;;;19.20;95.80;;;;;;5038775;28;20025;-86
2022/09/10 06:06:33;;;;;;;6.78;4.93;;;19.20;95.80;;;;;;5022761;28;20026;-89
2022/09/10 06:09:20;;;;;;;5.22;3.80;;;19.20;95.80;;;;;;5038416;28;20535;-89
2022/09/10 06:11:52;;;;;;;8.02;4.47;;;19.20;95.80;;;;;;5023095;28;20041;-87
2022/09/10 06:17:43;;;;;;;6.47;4.05;;;19.10;95.80;;;;;;4996414;28;20052;-87
2022/09/10 06:23:05;;;;;;;;;;;18.90;95.80;;;;;;5030883;28;20499;-89
2022/09/10 06:25:33;;;;;;;;;;;18.90;96.00;;;;;;5021729;28;20288;-88
2022/09/10 06:28:01;;;;;;;3.57;2.90;;;18.80;96.00;;;;;;5037049;28;20331;-88
2022/09/10 06:31:03;;;;;;;4.45;3.15;;;18.70;96.10;;;;;;5020124;28;20469;-88
2022/09/10 06:36:48;;;;;;;4.20;3.47;;;18.60;96.30;;;;;;5047735;28;20007;-89
2022/09/10 06:39:40;;;;;;;3.70;3.28;;;18.60;96.40;;;;;;5038929;28;20037;-88
2022/09/10 06:42:31;;;;;;;4.63;3.42;;;18.60;96.40;;;;;;5024719;28;20034;-89
2022/09/10 06:45:19;;;;;;;6.35;4.10;;;18.60;96.40;;;;;;5043482;28;20116;-89
2022/09/10 06:47:49;;;;;;;5.32;4.25;;;18.60;96.50;;;;;;5041486;28;20459;-89
2022/09/10 06:50:21;;;;;;;7.13;4.60;;;18.60;96.50;;;;;;5041440;28;20465;-90
2022/09/10 06:52:59;;;;;;;6.18;5.03;;;18.60;96.50;;;;;;5025915;28;20400;-87
2022/09/10 06:55:37;;;;;;;6.60;5.88;;;18.60;96.50;;;;;;5025590;28;20476;-89
2022/09/10 06:58:03;;;;;;;5.97;5.38;;;18.60;96.50;;;;;;5026217;28;20032;-86
2022/09/10 07:00:38;;;;;;;8.07;6.03;;;18.70;96.50;;;;;;5041622;28;20021;-88
2022/09/10 07:03:15;;;;;;;6.63;5.45;;;18.70;96.50;;;;;;5042901;28;20028;-86
2022/09/10 07:05:54;;;;;;;6.55;5.72;;;18.70;96.50;;;;;;5056726;28;20025;-89
2022/09/10 07:08:35;;;;;;;7.05;6.20;;;18.70;96.50;;;;;;5063747;28;20076;-89
2022/09/10 07:11:21;;;;;;;8.98;6.68;;;18.70;96.60;;;;;;5080697;28;20017;-85
2022/09/10 07:13:53;;;;;;;7.78;6.97;;;18.70;96.60;;;;;;5031795;28;20024;-87
2022/09/10 07:16:23;;;;;;;7.60;6.10;;;18.80;96.60;;;;;;5061131;28;20093;-87
2022/09/10 07:18:56;;;;;;;9.10;6.55;;;18.80;96.60;;;;;;5038746;28;20037;-87
2022/09/10 07:21:33;;;;;;;7.50;5.97;;;18.80;96.60;;;;;;5056379;28;20033;-88
2022/09/10 07:24:04;;;;;;;7.32;5.75;;;18.80;96.90;;;;;;5040325;28;20049;-85
2022/09/10 07:26:42;;;;;;;6.45;5.45;;;18.80;96.60;;;;;;5040724;28;20128;-87
2022/09/10 07:29:13;;;;;;;7.07;5.90;;;18.80;96.70;;;;;;5024693;28;20048;-86
2022/09/10 07:31:40;;;;;;;7.43;6.00;;;18.80;96.70;;;;;;5042941;28;20025;-87
2022/09/10 07:34:07;;;;;;;7.53;6.15;;;18.80;96.80;;;;;;5044101;28;20037;-86
2022/09/10 07:36:46;;;;;;;7.90;6.13;;;18.90;96.80;;;;;;5043351;28;20021;-90
2022/09/10 07:42:11;;;;;;;6.85;5.75;;;18.90;96.70;;;;;;5059112;28;20033;-89
2022/09/10 07:45:04;;;;;;;;;;;;;;;;;;;;;
2022/09/10 07:47:58;;;;;;;7.55;5.90;;;18.90;96.70;;;;;;5042509;28;20388;-88
2022/09/10 07:50:35;;;;;;;7.70;6.13;;;19.00;96.70;;;;;;5048060;28;20059;-87
2022/09/10 07:53:22;;;;;;;9.45;8.13;;;19.00;96.80;;;;;;5026697;28;20080;-87
2022/09/10 07:56:19;;;;;;;7.45;6.35;;;19.00;96.80;;;;;;5055464;28;20028;-88
2022/09/10 07:58:45;;;;;;;7.28;5.82;;;19.00;96.70;;;;;;5041007;28;20390;-86
2022/09/10 08:01:29;;;;;;;7.22;5.50;;;19.00;96.70;;;;;;5037971;28;20013;-85
2022/09/10 08:04:00;;;;;;;7.03;5.43;;;19.10;96.80;;;;;;5022672;28;20033;-87
2022/09/10 08:06:31;;;;;;;7.95;5.53;;;19.10;96.80;;;;;;5021438;28;20025;-88
2022/09/10 08:09:05;;;;;;;;;;;19.20;96.80;;;;;;5039157;28;20064;-87
2022/09/10 08:11:42;;;;;;;6.88;5.10;;;19.20;96.80;;;;;;5038400;28;20367;-87
2022/09/10 08:14:18;;;;;;;6.28;5.65;;;19.20;96.80;;;;;;5039906;28;20025;-89
2022/09/10 08:17:16;;;;;;;5.63;5.00;;;19.20;96.80;;;;;;5057640;28;20492;-88
2022/09/10 08:20:26;;;;;;;7.50;6.70;;;19.20;96.80;;;;;;5025305;28;20063;-89
2022/09/10 08:23:12;;;;;;;7.88;5.65;;;19.30;96.80;;;;;;5056947;28;20384;-90
2022/09/10 08:25:41;;;;;;;6.63;5.20;;;19.30;96.80;;;;;;5025556;28;20047;-88
2022/09/10 08:28:17;;;;;;;6.15;5.47;;;19.30;96.90;;;;;;5056638;28;20021;-87
2022/09/10 08:31:23;;;;;;;6.00;5.05;;;19.30;96.90;;;;;;5022679;28;20041;-88
2022/09/10 08:34:31;;;;;;;6.40;4.80;;;19.40;96.90;;;;;;5027215;28;20033;-90
2022/09/10 08:37:00;;;;;;;5.53;4.82;;;19.40;96.90;;;;;;5038986;28;20033;-86
2022/09/10 08:46:32;;;;;;;5.82;5.28;;;19.50;96.80;;;;;;5058471;28;20032;-89
2022/09/10 08:49:32;;;;;;;5.88;5.28;;;19.50;96.80;;;;;;4973880;28;20040;-89
2022/09/10 08:52:21;;;;;;;6.13;5.63;;;19.50;96.80;;;;;;5036829;28;20045;-87
2022/09/10 08:54:57;;;;;;;7.78;5.78;;;19.60;96.80;;;;;;5038252;28;20049;-89
2022/09/10 08:58:21;;;;;;;5.80;5.30;;;19.50;96.70;;;;;;5041551;28;20025;-87
2022/09/10 09:01:49;;;;;;;;;;;;;;;;;;;;;
2022/09/10 09:04:59;;;;;;;6.88;6.22;;;19.60;97.00;;;;;;4994820;28;20014;-91
2022/09/10 09:08:19;;;;;;;6.00;5.45;;;19.60;96.80;;;;;;5061792;28;20028;-90
2022/09/10 09:11:23;;;;;;;6.30;5.70;;;19.60;96.90;;;;;;5076820;28;20033;-89
2022/09/10 09:14:37;;;;;;;;;;;;;;;;;;;;;
2022/09/10 09:17:33;;;;;;;6.10;5.50;;;19.70;96.90;;;;;;5056344;28;20021;-88
2022/09/10 09:21:01;;;;;;;6.93;6.13;;;19.80;97.00;;;;;;5055296;28;20033;-87
2022/09/10 09:23:55;;;;;;;6.03;5.53;;;19.80;97.00;;;;;;5055780;28;20028;-89
2022/09/10 09:26:33;;;;;;;7.80;6.97;;;19.90;97.10;;;;;;5038115;28;20068;-89
2022/09/10 09:29:37;;;;;;;7.10;6.40;;;20.00;97.10;;;;;;5038861;28;20476;-89
2022/09/10 09:32:14;;;;;;;7.18;6.47;;;20.00;97.20;;;;;;5055896;28;20040;-89
2022/09/10 09:35:03;;;;;;;;;;;;;;;;;;;;;
2022/09/10 09:45:20;;;;;;;;;;;;;;;;;;;;;
2022/09/10 09:48:01;;;;;;;;;;;;;;;;;;;;;
2022/09/10 09:51:20;;;;;;;8.30;7.35;;;20.30;96.70;;;;;;4924301;28;20040;-89
2022/09/10 09:53:40;;;;;;;7.75;6.90;;;20.30;96.70;;;;;;4999287;28;20129;-88
2022/09/10 09:56:50;;;;;;;7.18;6.57;;;20.30;96.80;;;;;;5047784;28;20052;-90
2022/09/10 09:59:45;;;;;;;7.03;6.13;;;20.20;96.70;;;;;;5055583;28;20381;-89
2022/09/10 10:02:45;;;;;;;6.35;5.75;;;20.10;96.90;;;;;;5025139;28;20031;-90
2022/09/10 10:05:49;;;;;;;;;;;;;;;;;;;;;
2022/09/10 10:09:12;;;;;;;6.63;5.97;;;20.10;96.90;;;;;;5041411;28;20120;-92
2022/09/10 10:12:26;;;;;;;;;;;;;;;;;;;;;
2022/09/10 10:14:52;;;;;;;6.97;5.72;;;20.10;96.80;;;;;;5019280;28;20037;-89
2022/09/10 10:24:53;;;;;;;3.00;2.70;;;20.10;96.50;;;;;;5036775;28;20086;-90
2022/09/10 10:34:30;;;;;;;;;;;;;;;;;;;;;
2022/09/10 10:44:46;;;;;;;3.47;3.17;;;19.90;97.10;;;;;;4985886;28;20077;-91
2022/09/10 10:54:39;;;;;;;2.25;2.05;;;20.00;96.60;;;;;;4980531;28;20127;-88
2022/09/10 10:58:21;;;;;;;;;;;;;;;;;;;;;
2022/09/10 11:08:22;;;;;;;3.67;2.88;;;20.20;96.60;;;;;;4945932;28;20042;-89
2022/09/10 11:11:30;;;;;;;;;;;;;;;;;;;;;
2022/09/10 11:14:59;;;;;;;2.53;2.30;;;20.40;96.60;;;;;;5056507;28;20120;-88
2022/09/10 11:18:11;;;;;;;;;;;;;;;;;;;;;
2022/09/10 11:20:52;;;;;;;3.28;2.97;;;20.50;96.50;;;;;;5049468;28;20043;-86
2022/09/10 11:27:48;;;;;;;3.53;3.20;;;20.60;96.50;;;;;;5016072;28;20481;-87
2022/09/10 11:30:50;;;;;;;3.97;3.67;;;20.70;96.50;;;;;;5033316;28;20156;-88
2022/09/10 11:34:02;;;;;;;3.40;3.10;;;20.70;96.60;;;;;;5002084;28;20064;-90
2022/09/10 11:37:03;;;;;;;4.72;3.25;;;20.80;96.60;;;;;;5010939;28;20076;-90
2022/09/10 11:39:42;;;;;;;3.40;3.08;;;20.80;96.40;;;;;;4987698;28;20037;-86
2022/09/10 11:42:39;;;;;;;4.07;2.92;;;20.80;96.50;;;;;;5037947;28;20423;-84
2022/09/10 11:46:00;;;;;;;4.05;3.70;;;20.80;96.60;;;;;;5038801;28;20021;-86
2022/09/10 11:48:46;;;;;;;4.40;3.70;;;20.80;96.60;;;;;;4941582;28;20023;-87
2022/09/10 11:52:01;;;;;;;3.38;3.08;;;20.90;96.50;;;;;;5038631;28;20299;-86
2022/09/10 11:54:34;;;;;;;3.42;3.13;;;20.90;96.60;;;;;;5010408;28;20053;-87
2022/09/10 11:57:21;;;;;;;;;;;;;;;;;;;;;
2022/09/10 11:59:56;;;;;;;4.35;3.90;;;20.90;96.70;;;;;;5036376;28;20376;-86
2022/09/10 12:03:01;;;;;;;3.97;3.53;;;21.00;96.70;;;;;;5018357;28;20022;-85
2022/09/10 12:06:07;;;;;;;4.80;4.03;;;21.00;96.60;;;;;;5019029;28;20025;-85
2022/09/10 12:09:03;;;;;;;3.70;3.40;;;21.00;96.60;;;;;;5018618;28;20049;-85
2022/09/10 12:11:52;;;;;;;4.22;3.83;;;21.10;96.50;;;;;;5018723;28;20036;-85
2022/09/10 12:14:27;;;;;;;6.18;4.03;;;21.10;96.40;;;;;;5018890;28;20028;-87
2022/09/10 12:17:07;;;;;;;4.50;4.10;;;21.20;96.40;;;;;;5019259;28;20022;-85
2022/09/10 12:19:47;;;;;;;4.93;4.03;;;21.20;96.40;;;;;;5018960;28;20025;-90
2022/09/10 12:25:19;;;;;;;2.58;2.38;;;21.30;96.40;;;;;;5030148;28;20035;-88
2022/09/10 12:27:55;;;;;;;1.50;1.38;;;21.30;96.40;;;;;;5019103;28;20366;-86
2022/09/10 12:30:58;;;;;;;;;;;;;;;;;;;;;
2022/09/10 12:33:37;;;;;;;3.35;1.60;;;21.30;95.80;;;;;;5037356;28;20037;-87
2022/09/10 12:39:46;;;;;;;2.78;1.60;;;20.90;95.60;;;;;;5035232;28;20056;-88
2022/09/10 12:42:33;;;;;;;2.78;1.90;;;20.90;95.80;;;;;;5017164;28;20038;-89
2022/09/10 12:45:17;;;;;;;;;;;;;;;;;;;;;
2022/09/10 12:47:46;;;;;;;1.90;1.65;;;20.80;95.50;;;;;;5036542;28;20027;-88
2022/09/10 12:50:44;;;;;;;1.52;1.42;;;20.70;95.40;;;;;;5018652;28;20037;-85
2022/09/10 12:53:30;;;;;;;1.52;1.42;;;20.70;95.30;;;;;;5015847;28;20049;-87
2022/09/10 12:56:23;;;;;;;1.48;1.38;;;20.60;95.20;;;;;;5019939;28;20025;-89
2022/09/10 12:59:13;;;;;;;1.70;1.27;;;20.60;95.20;;;;;;5020757;28;20032;-88
2022/09/10 13:02:19;;;;;;;1.13;1.08;;;20.70;95.20;;;;;;5038934;28;20013;-87
2022/09/10 13:05:23;;;;;;;;;;;;;;;;;;;;;
2022/09/10 13:08:37;;;;;;;1.70;1.23;;;20.70;95.00;;;;;;5031202;28;20104;-91
2022/09/10 13:12:04;;;;;;;6.18;1.50;;;20.70;94.80;;;;;;4972369;29;20034;-89
2022/09/10 13:14:56;;;;;;;2.47;1.42;;;20.70;94.70;;;;;;4942027;28;20078;-88
2022/09/10 13:17:50;;;;;;;1.38;1.27;;;20.80;95.00;;;;;;4974039;28;20512;-87
2022/09/10 13:20:33;;;;;;;1.30;1.20;;;20.80;94.90;;;;;;5019001;28;20084;-88
2022/09/10 13:23:08;;;;;;;1.90;1.55;;;20.80;94.80;;;;;;5017912;28;20021;-88
2022/09/10 13:25:48;;;;;;;1.95;1.60;;;20.80;94.60;;;;;;5018402;28;20048;-87
2022/09/10 13:28:43;;;;;;;;;;;;;;;;;;;;;
2022/09/10 13:31:58;;;;;;;1.98;1.60;;;20.70;94.70;;;;;;5035198;28;20045;-86
2022/09/10 13:34:46;;;;;;;1.90;1.80;;;20.70;94.80;;;;;;5018209;28;20038;-87
2022/09/10 13:37:44;;;;;;;;;;;;;;;;;;;;;
2022/09/10 13:40:43;;;;;;;2.28;2.08;;;20.80;94.90;;;;;;5034729;28;20029;-84
2022/09/10 13:43:47;;;;;;;2.47;2.13;;;20.90;94.80;;;;;;5015739;28;20017;-84
2022/09/10 13:46:29;;;;;;;2.20;1.90;;;21.00;94.90;;;;;;5015668;28;20116;-85
2022/09/10 13:49:13;;;;;;;1.20;1.10;;;21.10;94.90;;;;;;5000798;28;20041;-84
2022/09/10 13:51:53;;;;;;;1.75;1.10;;;21.00;94.10;;;;;;5033764;28;20472;-84
2022/09/10 13:54:42;;;;;;;1.30;1.17;;;20.90;93.90;;;;;;5034632;28;20083;-85
2022/09/10 13:57:35;;;;;;;2.22;1.10;;;20.80;94.20;;;;;;5035315;28;20021;-86
2022/09/10 14:00:33;;;;;;;2.17;1.90;;;20.80;94.20;;;;;;5035624;28;20048;-85
2022/09/10 14:03:13;;;;;;;1.50;1.40;;;20.70;94.20;;;;;;5035294;28;20029;-84
2022/09/10 14:05:52;;;;;;;1.75;1.65;;;20.70;94.20;;;;;;5035092;28;20021;-85
2022/09/10 14:08:24;;;;;;;1.60;1.50;;;20.60;94.20;;;;;;5035070;28;20063;-87
2022/09/10 14:11:15;;;;;;;1.60;1.50;;;20.60;94.40;;;;;;5019139;28;20424;-85
2022/09/10 14:14:05;;;;;;;1.80;1.63;;;20.70;94.40;;;;;;5035734;28;20113;-86
2022/09/10 14:17:14;;;;;;;2.00;1.77;;;20.60;94.50;;;;;;5035453;28;20033;-85
2022/09/10 14:19:46;;;;;;;2.40;1.73;;;20.60;94.60;;;;;;5007056;28;20067;-86
2022/09/10 14:22:21;;;;;;;3.15;2.10;;;20.60;94.60;;;;;;5035227;28;20091;-85
2022/09/10 14:24:53;;;;;;;2.22;2.03;;;20.60;94.40;;;;;;5019127;28;20025;-86
2022/09/10 14:27:24;;;;;;;2.10;1.90;;;20.60;94.50;;;;;;5035222;28;20445;-85
2022/09/10 14:29:55;;;;;;;2.65;2.13;;;20.60;94.60;;;;;;5035522;28;20120;-85
2022/09/10 14:32:37;;;;;;;3.05;1.90;;;20.70;94.60;;;;;;5035235;28;20025;-83
2022/09/10 14:35:39;;;;;;;1.90;1.65;;;20.80;94.50;;;;;;5035163;28;20025;-86
2022/09/10 14:38:35;;;;;;;1.67;1.58;;;20.90;94.70;;;;;;5035505;28;20021;-88
2022/09/10 14:47:49;;;;;;;1.80;1.70;;;21.10;94.20;;;;;;5056315;28;20531;-89
2022/09/10 14:50:37;;;;;;;1.75;1.63;;;21.10;94.10;;;;;;5022461;28;20041;-90
2022/09/10 14:53:44;;;;;;;1.48;1.20;;;21.10;94.20;;;;;;5022538;28;20048;-89
2022/09/10 14:56:45;;;;;;;;;;;;;;;;;;;;;
2022/09/10 15:02:37;;;;;;;1.85;0.80;;;21.20;94.20;;;;;;5064940;28;20099;-91
2022/09/10 15:05:54;;;;;;;1.50;1.00;;;21.20;93.90;;;;;;5060460;28;20013;-89
2022/09/10 15:08:47;;;;;;;1.77;1.05;;;21.20;93.70;;;;;;5062537;28;20056;-89
2022/09/10 15:11:53;;;;;;;;;;;;;;;;;;;;;
2022/09/10 15:21:21;;;;;;;1.15;1.02;;;21.10;93.10;;;;;;4979180;28;20034;-89
2022/09/10 15:30:57;;;;;;;2.40;1.20;;;21.20;92.90;;;;;;4998263;28;20053;-90
2022/09/10 15:33:27;;;;;;;3.75;1.20;;;21.20;92.90;;;;;;4994465;28;20629;-84
2022/09/10 15:35:53;;;;;;;1.77;1.40;;;21.30;92.80;;;;;;4995762;28;20026;-86
2022/09/10 15:38:20;;;;;;;1.70;1.23;;;21.30;92.70;;;;;;5036728;28;20028;-86
2022/09/10 15:40:48;;;;;;;1.00;0.77;;;21.50;92.80;;;;;;5037721;28;20032;-85
2022/09/10 15:43:18;;;;;;;0.50;0.50;;;21.50;92.70;;;;;;5038076;28;20096;-83
2022/09/10 15:45:46;;;;;;;0.70;0.70;;;21.60;92.80;;;;;;5022417;28;20465;-85
2022/09/10 15:48:12;;;;;;;1.33;0.90;;;21.70;93.20;;;;;;5021414;28;20477;-83
2022/09/10 15:50:46;;;;;;;1.17;1.08;;;21.70;93.00;;;;;;5037090;28;20502;-84
2022/09/10 15:53:11;;;;;;;1.45;1.10;;;21.80;92.80;;;;;;5021574;28;20103;-84
2022/09/10 15:55:38;;;;;;;1.13;0.82;;;21.80;92.40;;;;;;5037986;28;20579;-84
2022/09/10 15:58:04;;;;;;;1.98;1.00;;;21.80;92.30;;;;;;5038104;28;20017;-84